Thunder radar more information blitzortung!


Radar de pluja more information rain snow radar


Visita la nostra xarxa de llocs de meteo:

Template documentation
and downloads

And another site



No particular awareness of the weather is required.    There are no Weather-warnings

Pagina Historial Weather Underground text

Diari Resum Octubre 3, 2017 Unitats:  Imperial    Mètric   Tant
« Previous Dia
SegĂźent Dia »
Diari Setmana Mensual Anual Personalitzada
  Maxima: Minima: Media:
Temperatura: TemperatureC °F 16.5 °F 21.4 °F
Punt de rosada: DewpointC °F 14.3 °F 16 °F
Humitat: Humidity % 54 % 72 %
Wind Speed: WindSpeedKMH mph 0.0 mph 4.6 mph
RĂ fegues de vent: WindSpeedGustKMH mph - -
Vent:- - South
Pression baro: PressurehPa in 1019.9 in -
Precipitacions: 0.0 in    
Historical Graphs
 
 
Dades de taula per Octubre 3, 2017
Temps Temperatura Punt de rosada Pression baro Vent Wind Speed RĂ fegues de vent Humitat Rainfall Rate (Hourly)
TemperatureC °F DewpointC °F PressurehPa in Calm     Humidity % HourlyPrecipMM in
00:00 17.1 °F 14.4 °F 1021.9 in Calm   3.2 mph 84 % 0.0 in
00:02 19.2 °F 15.3 °F 1023.9 in WSW 3.7 mph   78 % 0.0 in
00:07 19.1 °F 15.2 °F 1023.9 in WSW 1.4 mph   78 % 0.0 in
00:10 17.0 °F 14.4 °F 1021.9 in Calm     85 % 0.0 in
00:12 19.0 °F 15.1 °F 1023.9 in Calm     78 % 0.0 in
00:20 16.9 °F 14.3 °F 1021.9 in Calm     85 % 0.0 in
00:30 16.8 °F 14.3 °F 1021.9 in Calm     85 % 0.0 in
00:40 16.8 °F 14.4 °F 1021.9 in Calm     86 % 0.0 in
00:50 16.8 °F 14.4 °F 1021.9 in Calm     86 % 0.0 in
01:00 16.7 °F 14.3 °F 1021.9 in Calm     86 % 0.0 in
01:10 16.7 °F 14.5 °F 1021.9 in Calm     87 % 0.0 in
01:20 16.6 °F 14.4 °F 1021.9 in Calm   3.2 mph 87 % 0.0 in
01:30 16.5 °F 14.3 °F 1021.9 in West 1.6 mph 3.2 mph 87 % 0.0 in
01:40 16.5 °F 14.3 °F 1021.9 in Calm   3.2 mph 87 % 0.0 in
01:50 16.5 °F 14.3 °F 1021.9 in WSW 3.2 mph 3.2 mph 87 % 0.0 in
02:00 16.7 °F 14.5 °F 1020.9 in WSW 1.6 mph 3.2 mph 87 % 0.0 in
02:10 16.8 °F 14.6 °F 1021.9 in Calm   1.6 mph 87 % 0.0 in
02:20 16.7 °F 14.5 °F 1021.9 in WSW 1.6 mph 3.2 mph 87 % 0.0 in
02:30 16.7 °F 14.5 °F 1021.9 in SW 1.6 mph 3.2 mph 87 % 0.0 in
02:40 16.6 °F 14.4 °F 1021.9 in SW 1.6 mph 3.2 mph 87 % 0.0 in
02:50 16.7 °F 14.5 °F 1021.9 in WSW 1.6 mph 3.2 mph 87 % 0.0 in
03:00 16.9 °F 14.7 °F 1021.9 in Calm   3.2 mph 87 % 0.0 in
03:10 17.0 °F 14.8 °F 1021.9 in Calm   1.6 mph 87 % 0.0 in
03:20 17.0 °F 14.7 °F 1021.9 in Calm   3.2 mph 86 % 0.0 in
03:30 17.1 °F 14.7 °F 1021.9 in WSW 1.6 mph 3.2 mph 86 % 0.0 in
03:40 17.2 °F 14.8 °F 1021.9 in Calm   3.2 mph 86 % 0.0 in
03:50 17.3 °F 14.9 °F 1021.9 in SW 3.2 mph 3.2 mph 86 % 0.0 in
04:00 17.3 °F 14.9 °F 1021.9 in SW 3.2 mph 3.2 mph 86 % 0.0 in
04:10 17.5 °F 15.1 °F 1021.9 in SW 1.6 mph 3.2 mph 86 % 0.0 in
04:20 17.7 °F 15.3 °F 1021.9 in SW 1.6 mph 3.2 mph 86 % 0.0 in
04:30 17.9 °F 15.5 °F 1020.9 in WSW 1.6 mph 4.8 mph 86 % 0.0 in
04:40 18.1 °F 15.6 °F 1021.9 in WSW 1.6 mph 3.2 mph 85 % 0.0 in
04:50 18.3 °F 15.7 °F 1021.9 in SW 1.6 mph 3.2 mph 85 % 0.0 in
05:00 18.5 °F 15.9 °F 1020.9 in SW 3.2 mph 4.8 mph 85 % 0.0 in
05:10 18.8 °F 16.1 °F 1021.9 in Calm   3.2 mph 84 % 0.0 in
05:20 19.0 °F 16.1 °F 1021.9 in SW 3.2 mph 3.2 mph 83 % 0.0 in
05:30 19.3 °F 16.3 °F 1021.9 in SW 1.6 mph 4.8 mph 83 % 0.0 in
05:40 19.6 °F 16.4 °F 1021.9 in Calm   3.2 mph 82 % 0.0 in
05:50 20.0 °F 16.4 °F 1021.9 in SSW 3.2 mph 3.2 mph 80 % 0.0 in
06:00 20.4 °F 16.8 °F 1021.9 in South 1.6 mph 3.2 mph 80 % 0.0 in
06:10 20.8 °F 17.0 °F 1021.9 in Calm   3.2 mph 79 % 0.0 in
06:20 20.6 °F 16.6 °F 1021.9 in ESE 1.6 mph 4.8 mph 78 % 0.0 in
11:28 20.8 °F 16.6 °F 1021.9 in East 3.7 mph 3.7 mph 77 % 0.0 in
11:29 20.8 °F 16.6 °F 1021.9 in East 3.7 mph 3.7 mph 77 % 0.0 in
11:34 20.9 °F 16.7 °F 1021.9 in NNE 2.6 mph 2.6 mph 77 % 0.0 in
11:39 21.3 °F 16.9 °F 1021.9 in North 2.6 mph 2.6 mph 76 % 0.0 in
11:44 21.9 °F 17.5 °F 1021.9 in NE 5.6 mph 5.6 mph 76 % 0.0 in
11:49 21.9 °F 17.3 °F 1021.9 in East 3.9 mph 3.9 mph 75 % 0.0 in
11:54 22.1 °F 17.2 °F 1021.9 in ENE 5.6 mph 5.6 mph 74 % 0.0 in
11:59 22.3 °F 17.2 °F 1021.9 in ENE 5.6 mph 5.6 mph 73 % 0.0 in
12:04 22.4 °F 17.3 °F 1021.9 in ENE 3.9 mph 3.9 mph 73 % 0.0 in
12:09 22.2 °F 17.1 °F 1021.9 in ENE 5.6 mph 5.6 mph 73 % 0.0 in
12:14 22.2 °F 16.9 °F 1021.9 in NE 6.1 mph 6.1 mph 72 % 0.0 in
12:19 22.5 °F 17.2 °F 1021.9 in WNW 3.7 mph 3.7 mph 72 % 0.0 in
12:24 22.5 °F 17.0 °F 1021.9 in NNE 9.3 mph 9.3 mph 71 % 0.0 in
12:29 23.1 °F 17.8 °F 1021.9 in North 3.7 mph 3.7 mph 72 % 0.0 in
12:34 23.5 °F 17.7 °F 1021.9 in NNE 5.6 mph 5.6 mph 70 % 0.0 in
12:39 23.9 °F 18.1 °F 1021.9 in NNE 5.8 mph 5.8 mph 70 % 0.0 in
12:44 23.8 °F 17.8 °F 1021.9 in WNW 3.7 mph 3.7 mph 69 % 0.0 in
12:49 24.3 °F 18.0 °F 1021.9 in West 3.9 mph 3.9 mph 68 % 0.0 in
12:54 24.4 °F 17.6 °F 1021.9 in NE 3.7 mph 3.7 mph 66 % 0.0 in
12:59 24.4 °F 17.6 °F 1021.9 in NE 5.6 mph 5.6 mph 66 % 0.0 in
13:04 24.3 °F 17.3 °F 1021.9 in NE 7.4 mph 7.4 mph 65 % 0.0 in
13:14 24.1 °F 16.6 °F 1021.9 in NNE 9.3 mph 9.3 mph 63 % 0.0 in
13:19 24.6 °F 17.3 °F 1021.9 in NE 5.6 mph 5.6 mph 64 % 0.0 in
13:24 24.5 °F 16.7 °F 1021.9 in East 7.4 mph 7.4 mph 62 % 0.0 in
13:29 24.5 °F 16.7 °F 1021.9 in NE 9.3 mph 9.3 mph 62 % 0.0 in
13:34 24.8 °F 16.8 °F 1021.9 in ENE 6.1 mph 6.1 mph 61 % 0.0 in
13:39 24.6 °F 16.8 °F 1021.9 in ENE 9.3 mph 9.3 mph 62 % 0.0 in
13:44 24.6 °F 16.8 °F 1021.9 in NE 7.4 mph 7.4 mph 62 % 0.0 in
13:49 24.6 °F 16.8 °F 1021.9 in ENE 9.3 mph 9.3 mph 62 % 0.0 in
13:54 24.7 °F 16.7 °F 1021.9 in NNE 9.3 mph 9.3 mph 61 % 0.0 in
13:59 24.7 °F 16.7 °F 1021.9 in NNE 7.4 mph 7.4 mph 61 % 0.0 in
14:01 24.8 °F 16.8 °F 1021.9 in NE 9.7 mph 9.7 mph 61 % 0.0 in
14:06 24.8 °F 16.8 °F 1021.9 in NNW 5.3 mph 5.3 mph 61 % 0.0 in
14:11 25.1 °F 16.8 °F 1021.9 in NE 3.9 mph 3.9 mph 60 % 0.0 in
14:16 25.3 °F 17.0 °F 1020.9 in NNE 7.6 mph 7.6 mph 60 % 0.0 in
14:21 24.9 °F 16.6 °F 1020.9 in NE 9.3 mph 9.3 mph 60 % 0.0 in
14:26 24.8 °F 16.5 °F 1020.9 in South 5.6 mph 5.6 mph 60 % 0.0 in
14:31 25.5 °F 16.9 °F 1020.9 in NNE 9.5 mph 9.5 mph 59 % 0.0 in
14:36 25.7 °F 16.8 °F 1020.9 in ESE 7.4 mph 7.4 mph 58 % 0.0 in
14:41 25.4 °F 16.6 °F 1020.9 in NNE 9.3 mph 9.3 mph 58 % 0.0 in
14:46 25.1 °F 16.3 °F 1020.9 in NNE 7.9 mph 7.9 mph 58 % 0.0 in
14:51 24.9 °F 16.3 °F 1020.9 in NE 9.3 mph 9.3 mph 59 % 0.0 in
14:56 25.0 °F 15.9 °F 1020.9 in ESE 7.4 mph 7.4 mph 57 % 0.0 in
15:01 25.1 °F 16.0 °F 1020.9 in NNE 5.6 mph 5.6 mph 57 % 0.0 in
15:06 25.1 °F 15.4 °F 1020.9 in WSW 9.3 mph 9.3 mph 55 % 0.0 in
15:08 25.6 °F 16.4 °F 1020.9 in NE 5.6 mph 5.6 mph 57 % 0.0 in
15:13 25.7 °F 16.3 °F 1020.9 in ENE 7.4 mph 7.4 mph 56 % 0.0 in
15:18 26.0 °F 16.3 °F 1019.9 in ENE 7.4 mph 7.4 mph 55 % 0.0 in
15:23 26.0 °F 16.6 °F 1019.9 in ESE 10.0 mph 10.0 mph 56 % 0.0 in
15:28 26.5 °F 16.7 °F 1019.9 in East 8.7 mph 8.7 mph 55 % 0.0 in
15:33 26.7 °F 16.6 °F 1020.9 in SSW 5.6 mph 5.6 mph 54 % 0.0 in
15:38 26.4 °F 16.3 °F 1020.9 in ESE 9.3 mph 9.3 mph 54 % 0.0 in
15:43 26.4 °F 16.3 °F 1020.9 in SE 16.7 mph 16.7 mph 54 % 0.0 in
15:48 26.2 °F 16.2 °F 1019.9 in ENE 9.3 mph 9.3 mph 54 % 0.0 in
15:53 25.6 °F 15.9 °F 1019.9 in ESE 14.8 mph 14.8 mph 55 % 0.0 in
15:58 25.2 °F 15.8 °F 1019.9 in SSE 17.2 mph 17.2 mph 56 % 0.0 in
16:03 25.1 °F 16.0 °F 1020.9 in East 11.4 mph 11.4 mph 57 % 0.0 in
16:08 24.8 °F 16.2 °F 1020.9 in ESE 13.7 mph 13.7 mph 59 % 0.0 in
16:13 24.6 °F 16.1 °F 1020.9 in East 13.0 mph 13.0 mph 59 % 0.0 in
16:18 24.6 °F 16.3 °F 1020.9 in East 12.2 mph 12.2 mph 60 % 0.0 in
16:23 24.4 °F 16.1 °F 1020.9 in East 20.4 mph 20.4 mph 60 % 0.0 in
16:28 24.4 °F 16.4 °F 1020.9 in ESE 13.0 mph 13.0 mph 61 % 0.0 in
16:33 24.3 °F 16.3 °F 1019.9 in East 11.1 mph 11.1 mph 61 % 0.0 in
16:38 24.3 °F 16.3 °F 1019.9 in ESE 9.3 mph 9.3 mph 61 % 0.0 in
16:43 24.4 °F 16.4 °F 1019.9 in ESE 6.1 mph 6.1 mph 61 % 0.0 in
16:48 24.4 °F 16.4 °F 1019.9 in East 9.3 mph 9.3 mph 61 % 0.0 in
16:53 24.6 °F 16.6 °F 1019.9 in East 9.3 mph 9.3 mph 61 % 0.0 in
16:58 24.4 °F 16.4 °F 1019.9 in SE 14.8 mph 14.8 mph 61 % 0.0 in
17:03 24.4 °F 16.4 °F 1019.9 in NNE 9.0 mph 9.0 mph 61 % 0.0 in
17:08 24.4 °F 16.4 °F 1019.9 in ESE 9.3 mph 9.3 mph 61 % 0.0 in
17:13 24.2 °F 16.2 °F 1019.9 in South 9.3 mph 9.3 mph 61 % 0.0 in
17:18 24.2 °F 16.2 °F 1019.9 in SSE 5.6 mph 5.8 mph 61 % 0.0 in
17:23 24.1 °F 16.1 °F 1019.9 in East 7.4 mph 7.4 mph 61 % 0.0 in
17:28 24.0 °F 16.0 °F 1019.9 in SSW 3.9 mph 3.9 mph 61 % 0.0 in
17:33 23.9 °F 15.9 °F 1020.9 in SE 7.4 mph 7.4 mph 61 % 0.0 in
17:38 23.9 °F 16.2 °F 1020.9 in South 2.6 mph 2.6 mph 62 % 0.0 in
17:43 23.9 °F 16.2 °F 1020.9 in SSE 9.3 mph 9.3 mph 62 % 0.0 in
17:48 23.9 °F 16.2 °F 1020.9 in South 5.6 mph 5.6 mph 62 % 0.0 in
17:53 24.0 °F 16.0 °F 1020.9 in ESE 9.3 mph 9.3 mph 61 % 0.0 in
17:54 24.0 °F 16.0 °F 1020.9 in SSE 9.3 mph 9.3 mph 61 % 0.0 in
17:59 24.3 °F 16.6 °F 1020.9 in ESE 4.2 mph 4.2 mph 62 % 0.0 in
18:04 24.5 °F 16.5 °F 1020.9 in SSE 3.7 mph 3.7 mph 61 % 0.0 in
18:19 24.4 °F 16.4 °F 1020.9 in East 4.2 mph 4.2 mph 61 % 0.0 in
18:24 24.2 °F 16.2 °F 1020.9 in South 5.6 mph 5.6 mph 61 % 0.0 in
18:29 24.1 °F 16.1 °F 1020.9 in ESE 7.4 mph 7.4 mph 61 % 0.0 in
18:34 24.4 °F 16.7 °F 1020.9 in SW 7.4 mph 7.4 mph 62 % 0.0 in
18:39 24.6 °F 16.8 °F 1020.9 in SW 7.4 mph 7.4 mph 62 % 0.0 in
18:49 24.4 °F 16.9 °F 1020.9 in SSW 7.4 mph 7.4 mph 63 % 0.0 in
18:54 24.2 °F 16.7 °F 1020.9 in WSW 6.4 mph 6.4 mph 63 % 0.0 in
18:59 23.9 °F 16.7 °F 1020.9 in West 9.3 mph 9.3 mph 64 % 0.0 in
19:04 23.8 °F 16.6 °F 1020.9 in SSW 3.7 mph 3.7 mph 64 % 0.0 in
19:09 23.5 °F 16.3 °F 1020.9 in South 11.1 mph 11.1 mph 64 % 0.0 in
19:14 23.3 °F 16.1 °F 1020.9 in SW 9.5 mph 9.5 mph 64 % 0.0 in
19:19 23.2 °F 16.0 °F 1021.9 in WSW 5.6 mph 5.6 mph 64 % 0.0 in
19:24 23.0 °F 16.1 °F 1021.9 in WSW 3.9 mph 3.9 mph 65 % 0.0 in
19:25 18.9 °F 15.9 °F 1022.9 in Calm   1.6 mph 83 % 0.0 in
19:29 22.8 °F 15.9 °F 1021.9 in SW 7.4 mph 7.4 mph 65 % 0.0 in
19:34 22.7 °F 15.8 °F 1021.9 in SW 3.9 mph 4.2 mph 65 % 0.0 in
19:35 18.8 °F 16.1 °F 1022.9 in Calm     84 % 0.0 in
19:39 22.5 °F 15.8 °F 1021.9 in WSW 5.6 mph 5.6 mph 66 % 0.0 in
19:44 22.4 °F 15.7 °F 1020.9 in SW 4.2 mph 4.2 mph 66 % 0.0 in
19:45 18.7 °F 15.9 °F 1023.9 in Calm     84 % 0.0 in
19:49 22.3 °F 15.9 °F 1020.9 in WSW 3.7 mph 3.7 mph 67 % 0.0 in
19:54 22.3 °F 15.9 °F 1020.9 in SW 3.7 mph 3.7 mph 67 % 0.0 in
19:55 18.7 °F 15.9 °F 1023.9 in Calm     84 % 0.0 in
19:59 22.2 °F 15.8 °F 1021.9 in SSW 6.1 mph 6.1 mph 67 % 0.0 in
20:04 22.2 °F 16.0 °F 1021.9 in WSW 2.6 mph   68 % 0.0 in
20:05 18.6 °F 16.0 °F 1023.9 in Calm     85 % 0.0 in
20:09 22.1 °F 15.9 °F 1021.9 in WSW 3.7 mph 3.7 mph 68 % 0.0 in
20:14 21.9 °F 15.9 °F 1021.9 in SW 4.7 mph 4.7 mph 69 % 0.0 in
20:15 18.5 °F 15.9 °F 1022.9 in Calm     85 % 0.0 in
20:19 21.8 °F 16.1 °F 1021.9 in WSW 5.6 mph 5.6 mph 70 % 0.0 in
20:24 21.7 °F 16.0 °F 1021.9 in WSW 2.3 mph 2.3 mph 70 % 0.0 in
20:25 18.4 °F 16.0 °F 1022.9 in Calm     86 % 0.0 in
20:29 21.6 °F 15.9 °F 1021.9 in West 3.7 mph 3.7 mph 70 % 0.0 in
20:34 21.5 °F 15.8 °F 1021.9 in WSW 3.7 mph 3.7 mph 70 % 0.0 in
20:35 18.1 °F 15.6 °F 1022.9 in SW 1.6 mph 3.2 mph 85 % 0.0 in
20:39 21.5 °F 16.0 °F 1021.9 in SW 3.7 mph 3.7 mph 71 % 0.0 in
20:44 21.4 °F 15.9 °F 1021.9 in WSW 1.9 mph   71 % 0.0 in
20:45 18.2 °F 15.6 °F 1021.9 in WSW 1.6 mph 4.8 mph 85 % 0.0 in
20:49 21.3 °F 15.8 °F 1021.9 in SW 1.4 mph   71 % 0.0 in
20:54 21.2 °F 15.7 °F 1021.9 in WSW 5.6 mph 5.6 mph 71 % 0.0 in
20:55 18.3 °F 15.9 °F 1021.9 in Calm   1.6 mph 86 % 0.0 in
20:59 21.2 °F 15.9 °F 1021.9 in SW 3.7 mph 3.7 mph 72 % 0.0 in
21:04 21.0 °F 15.8 °F 1021.9 in SW 3.7 mph 3.7 mph 72 % 0.0 in
21:05 18.3 °F 15.9 °F 1021.9 in Calm     86 % 0.0 in
21:09 20.9 °F 15.7 °F 1021.9 in WSW 3.7 mph 3.7 mph 72 % 0.0 in
21:14 20.9 °F 15.9 °F 1021.9 in West 3.7 mph 3.7 mph 73 % 0.0 in
21:15 18.2 °F 15.8 °F 1022.9 in Calm     86 % 0.0 in
21:19 20.8 °F 15.8 °F 1021.9 in SW 3.7 mph 3.7 mph 73 % 0.0 in
21:24 20.7 °F 15.9 °F 1021.9 in SW 3.7 mph 3.7 mph 74 % 0.0 in
21:25 18.1 °F 15.7 °F 1022.9 in West 1.6 mph 1.6 mph 86 % 0.0 in
21:29 20.6 °F 15.8 °F 1021.9 in WSW 3.7 mph 3.7 mph 74 % 0.0 in
21:34 20.6 °F 16.0 °F 1021.9 in WSW 3.7 mph   75 % 0.0 in
21:35 18.1 °F 15.6 °F 1022.9 in West 1.6 mph 3.2 mph 85 % 0.0 in
21:39 20.5 °F 15.9 °F 1021.9 in SW 3.7 mph   75 % 0.0 in
21:44 20.5 °F 15.9 °F 1022.9 in West 2.3 mph 2.6 mph 75 % 0.0 in
21:45 18.1 °F 15.6 °F 1022.9 in West 1.6 mph 3.2 mph 85 % 0.0 in
21:49 20.5 °F 15.9 °F 1022.9 in WSW 3.5 mph 3.5 mph 75 % 0.0 in
21:54 20.4 °F 16.0 °F 1022.9 in WSW 5.6 mph 5.6 mph 76 % 0.0 in
21:55 18.1 °F 15.6 °F 1022.9 in Calm     85 % 0.0 in
21:59 20.3 °F 15.9 °F 1022.9 in SW 3.7 mph 3.7 mph 76 % 0.0 in
22:04 20.2 °F 15.8 °F 1022.9 in SW 3.9 mph 3.9 mph 76 % 0.0 in
22:05 18.1 °F 15.3 °F 1022.9 in NW 1.6 mph 3.2 mph 84 % 0.0 in
22:09 20.2 °F 16.1 °F 1022.9 in West 3.7 mph 3.7 mph 77 % 0.0 in
22:14 20.2 °F 16.1 °F 1022.9 in WSW 3.7 mph 3.7 mph 77 % 0.0 in
22:19 20.1 °F 15.9 °F 1022.9 in WSW 3.7 mph 3.7 mph 77 % 0.0 in
22:24 20.0 °F 16.1 °F 1022.9 in West 1.9 mph 1.9 mph 78 % 0.0 in
22:29 20.0 °F 16.1 °F 1022.9 in WSW 3.7 mph 3.7 mph 78 % 0.0 in
22:34 20.0 °F 16.1 °F 1022.9 in WSW 3.7 mph 3.7 mph 78 % 0.0 in
22:35 17.9 °F 15.3 °F 1022.9 in Calm     85 % 0.0 in
22:39 19.9 °F 16.2 °F 1022.9 in WSW 3.7 mph   79 % 0.0 in
22:45 17.8 °F 15.2 °F 1022.9 in Calm     85 % 0.0 in
22:49 19.8 °F 16.2 °F 1022.9 in WSW 1.9 mph 1.9 mph 80 % 0.0 in
22:54 19.8 °F 16.2 °F 1022.9 in West 2.6 mph 2.6 mph 80 % 0.0 in
22:55 19.8 °F 16.2 °F 1022.9 in West 2.3 mph 2.3 mph 80 % 0.0 in
23:00 19.8 °F 16.2 °F 1022.9 in WSW 3.7 mph   80 % 0.0 in
23:05 19.8 °F 16.2 °F 1022.9 in WSW 3.7 mph 3.7 mph 80 % 0.0 in
23:10 19.7 °F 16.3 °F 1022.9 in Calm     81 % 0.0 in
23:15 19.7 °F 16.3 °F 1022.9 in WSW 1.9 mph 1.9 mph 81 % 0.0 in
23:20 19.6 °F 16.2 °F 1022.9 in SW 3.5 mph   81 % 0.0 in
23:25 19.6 °F 16.2 °F 1022.9 in WSW 2.6 mph 2.6 mph 81 % 0.0 in
23:30 19.6 °F 16.2 °F 1022.9 in WSW 1.9 mph   81 % 0.0 in
23:35 19.5 °F 16.2 °F 1022.9 in West 3.2 mph   81 % 0.0 in
23:40 19.5 °F 16.2 °F 1022.9 in West 3.7 mph 3.7 mph 81 % 0.0 in
23:45 19.5 °F 16.2 °F 1023.9 in WSW 1.9 mph 2.3 mph 81 % 0.0 in
23:50 19.4 °F 16.1 °F 1023.9 in West 3.7 mph 3.7 mph 81 % 0.0 in
23:55 19.3 °F 16.2 °F 1023.9 in SW 1.9 mph 1.9 mph 82 % 0.0 in
Meteo Sesrovires
Elogis d' Weather Underground - 2 mb

Guio original per  Jim McMurry - jmcmurry@mwt.net Adaptat per a la plantilla per  Wim van der Kuil - Leuven-Template.eu

Trobareu la nostra informacio del temps tambe a:

Weather Underground

AWEKAS